sensor_id;sensor_type;location;lat;lon;timestamp;temperature;humidity
75430;DHT22;64127;51.488;5.462;2023-12-28T00:00:12;11.20;99.90
75430;DHT22;64127;51.488;5.462;2023-12-28T00:02:44;11.20;99.90
75430;DHT22;64127;51.488;5.462;2023-12-28T00:05:16;11.20;99.90
75430;DHT22;64127;51.488;5.462;2023-12-28T00:07:48;11.20;99.90
75430;DHT22;64127;51.488;5.462;2023-12-28T00:10:28;11.20;99.90
75430;DHT22;64127;51.488;5.462;2023-12-28T00:13:01;11.20;99.90
75430;DHT22;64127;51.488;5.462;2023-12-28T00:15:33;11.10;99.90
75430;DHT22;64127;51.488;5.462;2023-12-28T00:18:05;11.10;99.90
75430;DHT22;64127;51.488;5.462;2023-12-28T00:20:37;11.10;99.90
75430;DHT22;64127;51.488;5.462;2023-12-28T00:23:09;11.10;99.90
75430;DHT22;64127;51.488;5.462;2023-12-28T00:25:41;11.10;99.90
75430;DHT22;64127;51.488;5.462;2023-12-28T00:28:13;11.10;99.90
75430;DHT22;64127;51.488;5.462;2023-12-28T00:30:45;11.20;99.90
75430;DHT22;64127;51.488;5.462;2023-12-28T00:33:17;11.10;99.90
75430;DHT22;64127;51.488;5.462;2023-12-28T00:35:49;11.10;99.90
75430;DHT22;64127;51.488;5.462;2023-12-28T00:38:21;11.10;99.90
75430;DHT22;64127;51.488;5.462;2023-12-28T00:40:53;11.10;99.90
75430;DHT22;64127;51.488;5.462;2023-12-28T00:43:25;11.20;99.90
75430;DHT22;64127;51.488;5.462;2023-12-28T00:45:57;11.10;99.90
75430;DHT22;64127;51.488;5.462;2023-12-28T00:48:29;11.20;99.90
75430;DHT22;64127;51.488;5.462;2023-12-28T00:51:02;11.10;99.90
75430;DHT22;64127;51.488;5.462;2023-12-28T00:53:34;11.10;99.90
75430;DHT22;64127;51.488;5.462;2023-12-28T00:56:06;11.20;99.90
75430;DHT22;64127;51.488;5.462;2023-12-28T00:58:39;11.10;99.90
75430;DHT22;64127;51.488;5.462;2023-12-28T01:01:12;11.20;99.90
75430;DHT22;64127;51.488;5.462;2023-12-28T01:03:44;11.20;99.90
75430;DHT22;64127;51.488;5.462;2023-12-28T01:06:16;11.10;99.90
75430;DHT22;64127;51.488;5.462;2023-12-28T01:08:48;11.10;99.90
75430;DHT22;64127;51.488;5.462;2023-12-28T01:11:21;11.10;99.90
75430;DHT22;64127;51.488;5.462;2023-12-28T01:13:53;11.20;99.90
75430;DHT22;64127;51.488;5.462;2023-12-28T01:16:25;11.20;99.90
75430;DHT22;64127;51.488;5.462;2023-12-28T01:18:57;11.20;99.90
75430;DHT22;64127;51.488;5.462;2023-12-28T01:21:29;11.20;99.90
75430;DHT22;64127;51.488;5.462;2023-12-28T01:24:01;11.20;99.90
75430;DHT22;64127;51.488;5.462;2023-12-28T01:26:34;11.20;99.90
75430;DHT22;64127;51.488;5.462;2023-12-28T01:29:06;11.20;99.90
75430;DHT22;64127;51.488;5.462;2023-12-28T01:31:38;11.20;99.90
75430;DHT22;64127;51.488;5.462;2023-12-28T01:34:11;11.30;99.90
75430;DHT22;64127;51.488;5.462;2023-12-28T01:36:45;11.20;99.90
75430;DHT22;64127;51.488;5.462;2023-12-28T01:39:17;11.20;99.90
75430;DHT22;64127;51.488;5.462;2023-12-28T01:41:50;11.20;99.90
75430;DHT22;64127;51.488;5.462;2023-12-28T01:44:22;11.20;99.90
75430;DHT22;64127;51.488;5.462;2023-12-28T01:46:54;11.20;99.90
75430;DHT22;64127;51.488;5.462;2023-12-28T01:49:26;11.20;99.90
75430;DHT22;64127;51.488;5.462;2023-12-28T01:52:00;11.20;99.90
75430;DHT22;64127;51.488;5.462;2023-12-28T01:54:33;11.20;99.90
75430;DHT22;64127;51.488;5.462;2023-12-28T01:57:07;11.20;99.90
75430;DHT22;64127;51.488;5.462;2023-12-28T01:59:40;11.20;99.90
75430;DHT22;64127;51.488;5.462;2023-12-28T02:02:13;11.30;99.90
75430;DHT22;64127;51.488;5.462;2023-12-28T02:04:46;11.20;99.90
75430;DHT22;64127;51.488;5.462;2023-12-28T02:07:18;11.20;99.90
75430;DHT22;64127;51.488;5.462;2023-12-28T02:09:52;11.20;99.90
75430;DHT22;64127;51.488;5.462;2023-12-28T02:12:24;11.10;99.90
75430;DHT22;64127;51.488;5.462;2023-12-28T02:14:56;11.10;99.90
75430;DHT22;64127;51.488;5.462;2023-12-28T02:20:35;11.10;99.90
75430;DHT22;64127;51.488;5.462;2023-12-28T02:23:07;11.10;99.90
75430;DHT22;64127;51.488;5.462;2023-12-28T02:25:41;11.10;99.90
75430;DHT22;64127;51.488;5.462;2023-12-28T02:28:13;11.10;99.90
75430;DHT22;64127;51.488;5.462;2023-12-28T02:30:46;11.10;99.90
75430;DHT22;64127;51.488;5.462;2023-12-28T02:36:06;11.10;99.90
75430;DHT22;64127;51.488;5.462;2023-12-28T02:38:41;11.10;99.90
75430;DHT22;64127;51.488;5.462;2023-12-28T02:41:16;11.00;99.90
75430;DHT22;64127;51.488;5.462;2023-12-28T02:43:49;11.10;99.90
75430;DHT22;64127;51.488;5.462;2023-12-28T02:46:21;11.00;99.90
75430;DHT22;64127;51.488;5.462;2023-12-28T02:48:53;11.00;99.90
75430;DHT22;64127;51.488;5.462;2023-12-28T02:51:29;11.00;99.90
75430;DHT22;64127;51.488;5.462;2023-12-28T02:54:01;11.00;99.90
75430;DHT22;64127;51.488;5.462;2023-12-28T02:56:33;11.00;99.90
75430;DHT22;64127;51.488;5.462;2023-12-28T02:59:05;11.00;99.90
75430;DHT22;64127;51.488;5.462;2023-12-28T03:01:37;11.10;99.90
75430;DHT22;64127;51.488;5.462;2023-12-28T03:04:09;11.10;99.90
75430;DHT22;64127;51.488;5.462;2023-12-28T03:06:41;11.10;99.90
75430;DHT22;64127;51.488;5.462;2023-12-28T03:09:14;11.10;99.90
75430;DHT22;64127;51.488;5.462;2023-12-28T03:11:46;11.10;99.90
75430;DHT22;64127;51.488;5.462;2023-12-28T03:14:18;11.10;99.90
75430;DHT22;64127;51.488;5.462;2023-12-28T03:16:50;11.10;99.90
75430;DHT22;64127;51.488;5.462;2023-12-28T03:19:22;11.10;99.90
75430;DHT22;64127;51.488;5.462;2023-12-28T03:21:54;11.10;99.90
75430;DHT22;64127;51.488;5.462;2023-12-28T03:24:26;11.10;99.90
75430;DHT22;64127;51.488;5.462;2023-12-28T03:26:58;11.10;99.90
75430;DHT22;64127;51.488;5.462;2023-12-28T03:29:30;11.20;99.90
75430;DHT22;64127;51.488;5.462;2023-12-28T03:32:03;11.20;99.90
75430;DHT22;64127;51.488;5.462;2023-12-28T03:34:35;11.10;99.90
75430;DHT22;64127;51.488;5.462;2023-12-28T03:37:07;11.20;99.90
75430;DHT22;64127;51.488;5.462;2023-12-28T03:39:41;11.20;99.90
75430;DHT22;64127;51.488;5.462;2023-12-28T03:42:13;11.20;99.90
75430;DHT22;64127;51.488;5.462;2023-12-28T03:44:46;11.20;99.90
75430;DHT22;64127;51.488;5.462;2023-12-28T03:47:18;11.30;99.90
75430;DHT22;64127;51.488;5.462;2023-12-28T03:49:50;11.30;99.90
75430;DHT22;64127;51.488;5.462;2023-12-28T03:52:22;11.30;99.90
75430;DHT22;64127;51.488;5.462;2023-12-28T03:54:57;11.40;99.90
75430;DHT22;64127;51.488;5.462;2023-12-28T03:57:29;11.40;99.90
75430;DHT22;64127;51.488;5.462;2023-12-28T04:00:01;11.40;99.90
75430;DHT22;64127;51.488;5.462;2023-12-28T04:02:34;11.40;99.90
75430;DHT22;64127;51.488;5.462;2023-12-28T04:05:06;11.40;99.90
75430;DHT22;64127;51.488;5.462;2023-12-28T04:07:39;11.40;99.90
75430;DHT22;64127;51.488;5.462;2023-12-28T04:10:11;11.40;99.90
75430;DHT22;64127;51.488;5.462;2023-12-28T04:12:43;11.40;99.90
75430;DHT22;64127;51.488;5.462;2023-12-28T04:15:15;11.40;99.90
75430;DHT22;64127;51.488;5.462;2023-12-28T04:17:47;11.50;99.90
75430;DHT22;64127;51.488;5.462;2023-12-28T04:20:19;11.50;99.90
75430;DHT22;64127;51.488;5.462;2023-12-28T04:22:51;11.50;99.90
75430;DHT22;64127;51.488;5.462;2023-12-28T04:25:23;11.50;99.90
75430;DHT22;64127;51.488;5.462;2023-12-28T04:27:55;11.50;99.90
75430;DHT22;64127;51.488;5.462;2023-12-28T04:30:28;11.50;99.90
75430;DHT22;64127;51.488;5.462;2023-12-28T04:33:00;11.60;99.90
75430;DHT22;64127;51.488;5.462;2023-12-28T04:35:33;11.60;99.90
75430;DHT22;64127;51.488;5.462;2023-12-28T04:38:05;11.60;99.90
75430;DHT22;64127;51.488;5.462;2023-12-28T04:40:37;11.60;99.90
75430;DHT22;64127;51.488;5.462;2023-12-28T04:43:09;11.60;99.90
75430;DHT22;64127;51.488;5.462;2023-12-28T04:45:41;11.60;99.90
75430;DHT22;64127;51.488;5.462;2023-12-28T04:48:13;11.60;99.90
75430;DHT22;64127;51.488;5.462;2023-12-28T04:50:45;11.60;99.90
75430;DHT22;64127;51.488;5.462;2023-12-28T04:53:17;11.60;99.90
75430;DHT22;64127;51.488;5.462;2023-12-28T04:55:49;11.60;99.90
75430;DHT22;64127;51.488;5.462;2023-12-28T04:58:21;11.60;99.90
75430;DHT22;64127;51.488;5.462;2023-12-28T05:00:53;11.60;99.90
75430;DHT22;64127;51.488;5.462;2023-12-28T05:03:25;11.60;99.90
75430;DHT22;64127;51.488;5.462;2023-12-28T05:05:57;11.60;99.90
75430;DHT22;64127;51.488;5.462;2023-12-28T05:08:29;11.60;99.90
75430;DHT22;64127;51.488;5.462;2023-12-28T05:11:01;11.60;99.90
75430;DHT22;64127;51.488;5.462;2023-12-28T05:13:33;11.70;99.90
75430;DHT22;64127;51.488;5.462;2023-12-28T05:16:06;11.70;99.90
75430;DHT22;64127;51.488;5.462;2023-12-28T05:18:38;11.70;99.90
75430;DHT22;64127;51.488;5.462;2023-12-28T05:21:10;11.60;99.90
75430;DHT22;64127;51.488;5.462;2023-12-28T05:23:44;11.70;99.90
75430;DHT22;64127;51.488;5.462;2023-12-28T05:26:15;11.70;99.90
75430;DHT22;64127;51.488;5.462;2023-12-28T05:28:47;11.70;99.90
75430;DHT22;64127;51.488;5.462;2023-12-28T05:31:19;11.70;99.90
75430;DHT22;64127;51.488;5.462;2023-12-28T05:33:52;11.70;99.90
75430;DHT22;64127;51.488;5.462;2023-12-28T05:36:24;11.70;99.90
75430;DHT22;64127;51.488;5.462;2023-12-28T05:38:57;11.60;99.90
75430;DHT22;64127;51.488;5.462;2023-12-28T05:41:29;11.60;99.90
75430;DHT22;64127;51.488;5.462;2023-12-28T05:44:01;11.60;99.90
75430;DHT22;64127;51.488;5.462;2023-12-28T05:46:33;11.60;99.90
75430;DHT22;64127;51.488;5.462;2023-12-28T05:49:05;11.60;99.90
75430;DHT22;64127;51.488;5.462;2023-12-28T05:51:41;11.50;99.90
75430;DHT22;64127;51.488;5.462;2023-12-28T05:54:13;11.50;99.90
75430;DHT22;64127;51.488;5.462;2023-12-28T05:56:45;11.50;99.90
75430;DHT22;64127;51.488;5.462;2023-12-28T05:59:17;11.50;99.90
75430;DHT22;64127;51.488;5.462;2023-12-28T06:01:50;11.50;99.90
75430;DHT22;64127;51.488;5.462;2023-12-28T06:04:22;11.50;99.90
75430;DHT22;64127;51.488;5.462;2023-12-28T06:06:54;11.50;99.90
75430;DHT22;64127;51.488;5.462;2023-12-28T06:09:26;11.50;99.90
75430;DHT22;64127;51.488;5.462;2023-12-28T06:11:59;11.50;99.90
75430;DHT22;64127;51.488;5.462;2023-12-28T06:14:31;11.50;99.90
75430;DHT22;64127;51.488;5.462;2023-12-28T06:17:04;11.50;99.90
75430;DHT22;64127;51.488;5.462;2023-12-28T06:19:35;11.50;99.90
75430;DHT22;64127;51.488;5.462;2023-12-28T06:22:08;11.50;99.90
75430;DHT22;64127;51.488;5.462;2023-12-28T06:24:40;11.50;99.90
75430;DHT22;64127;51.488;5.462;2023-12-28T06:27:12;11.50;99.90
75430;DHT22;64127;51.488;5.462;2023-12-28T06:29:44;11.50;99.90
75430;DHT22;64127;51.488;5.462;2023-12-28T06:32:16;11.50;99.90
75430;DHT22;64127;51.488;5.462;2023-12-28T06:34:48;11.50;99.90
75430;DHT22;64127;51.488;5.462;2023-12-28T06:37:21;11.50;99.90
75430;DHT22;64127;51.488;5.462;2023-12-28T06:39:53;11.50;99.90
75430;DHT22;64127;51.488;5.462;2023-12-28T06:42:25;11.50;99.90
75430;DHT22;64127;51.488;5.462;2023-12-28T06:44:57;11.50;99.90
75430;DHT22;64127;51.488;5.462;2023-12-28T06:47:29;11.50;99.90
75430;DHT22;64127;51.488;5.462;2023-12-28T06:50:01;11.50;99.90
75430;DHT22;64127;51.488;5.462;2023-12-28T06:52:33;11.50;99.90
75430;DHT22;64127;51.488;5.462;2023-12-28T06:55:05;11.50;99.90
75430;DHT22;64127;51.488;5.462;2023-12-28T06:57:38;11.50;99.90
75430;DHT22;64127;51.488;5.462;2023-12-28T07:00:10;11.50;99.90
75430;DHT22;64127;51.488;5.462;2023-12-28T07:02:43;11.50;99.90
75430;DHT22;64127;51.488;5.462;2023-12-28T07:05:15;11.60;99.90
75430;DHT22;64127;51.488;5.462;2023-12-28T07:07:47;11.50;99.90
75430;DHT22;64127;51.488;5.462;2023-12-28T07:10:19;11.50;99.90
75430;DHT22;64127;51.488;5.462;2023-12-28T07:12:51;11.50;99.90
75430;DHT22;64127;51.488;5.462;2023-12-28T07:15:23;11.50;99.90
75430;DHT22;64127;51.488;5.462;2023-12-28T07:17:55;11.50;99.90
75430;DHT22;64127;51.488;5.462;2023-12-28T07:20:27;11.40;99.90
75430;DHT22;64127;51.488;5.462;2023-12-28T07:22:59;11.40;99.90
75430;DHT22;64127;51.488;5.462;2023-12-28T07:25:32;11.40;99.90
75430;DHT22;64127;51.488;5.462;2023-12-28T07:28:05;11.40;99.90
75430;DHT22;64127;51.488;5.462;2023-12-28T07:30:37;11.40;99.90
75430;DHT22;64127;51.488;5.462;2023-12-28T07:33:10;11.40;99.90
75430;DHT22;64127;51.488;5.462;2023-12-28T07:35:42;11.40;99.90
75430;DHT22;64127;51.488;5.462;2023-12-28T07:38:14;11.40;99.90
75430;DHT22;64127;51.488;5.462;2023-12-28T07:40:47;11.30;99.90
75430;DHT22;64127;51.488;5.462;2023-12-28T07:43:19;11.30;99.90
75430;DHT22;64127;51.488;5.462;2023-12-28T07:45:51;11.40;99.90
75430;DHT22;64127;51.488;5.462;2023-12-28T07:48:23;11.40;99.90
75430;DHT22;64127;51.488;5.462;2023-12-28T07:50:55;11.40;99.90
75430;DHT22;64127;51.488;5.462;2023-12-28T07:53:27;11.50;99.90
75430;DHT22;64127;51.488;5.462;2023-12-28T07:55:59;11.40;99.90
75430;DHT22;64127;51.488;5.462;2023-12-28T07:58:31;11.40;99.90
75430;DHT22;64127;51.488;5.462;2023-12-28T08:01:03;11.40;99.90
75430;DHT22;64127;51.488;5.462;2023-12-28T08:03:36;11.40;99.90
75430;DHT22;64127;51.488;5.462;2023-12-28T08:06:08;11.40;99.90
75430;DHT22;64127;51.488;5.462;2023-12-28T08:08:40;11.40;99.90
75430;DHT22;64127;51.488;5.462;2023-12-28T08:11:12;11.40;99.90
75430;DHT22;64127;51.488;5.462;2023-12-28T08:13:44;11.40;99.90
75430;DHT22;64127;51.488;5.462;2023-12-28T08:16:16;11.40;99.90
75430;DHT22;64127;51.488;5.462;2023-12-28T08:18:48;11.40;99.90
75430;DHT22;64127;51.488;5.462;2023-12-28T08:21:20;11.50;99.90
75430;DHT22;64127;51.488;5.462;2023-12-28T08:23:53;11.50;99.90
75430;DHT22;64127;51.488;5.462;2023-12-28T08:26:25;11.50;99.90
75430;DHT22;64127;51.488;5.462;2023-12-28T08:28:56;11.50;99.90
75430;DHT22;64127;51.488;5.462;2023-12-28T08:31:29;11.50;99.90
75430;DHT22;64127;51.488;5.462;2023-12-28T08:34:01;11.50;99.90
75430;DHT22;64127;51.488;5.462;2023-12-28T08:36:34;11.50;99.90
75430;DHT22;64127;51.488;5.462;2023-12-28T08:39:06;11.50;99.90
75430;DHT22;64127;51.488;5.462;2023-12-28T08:41:38;11.50;99.90
75430;DHT22;64127;51.488;5.462;2023-12-28T08:44:10;11.50;99.90
75430;DHT22;64127;51.488;5.462;2023-12-28T08:46:42;11.60;99.90
75430;DHT22;64127;51.488;5.462;2023-12-28T08:49:14;11.60;99.90
75430;DHT22;64127;51.488;5.462;2023-12-28T08:51:47;11.60;99.90
75430;DHT22;64127;51.488;5.462;2023-12-28T08:54:19;11.60;99.90
75430;DHT22;64127;51.488;5.462;2023-12-28T08:56:52;11.60;99.90
75430;DHT22;64127;51.488;5.462;2023-12-28T08:59:28;11.60;99.90
75430;DHT22;64127;51.488;5.462;2023-12-28T09:02:00;11.70;99.90
75430;DHT22;64127;51.488;5.462;2023-12-28T09:04:33;11.70;99.90
75430;DHT22;64127;51.488;5.462;2023-12-28T09:07:05;11.70;99.90
75430;DHT22;64127;51.488;5.462;2023-12-28T09:09:37;11.70;99.90
75430;DHT22;64127;51.488;5.462;2023-12-28T09:12:09;11.70;99.90
75430;DHT22;64127;51.488;5.462;2023-12-28T09:14:42;11.70;99.90
75430;DHT22;64127;51.488;5.462;2023-12-28T09:17:14;11.70;99.90
75430;DHT22;64127;51.488;5.462;2023-12-28T09:19:46;11.70;99.90
75430;DHT22;64127;51.488;5.462;2023-12-28T09:22:18;11.70;99.90
75430;DHT22;64127;51.488;5.462;2023-12-28T09:24:51;11.70;99.90
75430;DHT22;64127;51.488;5.462;2023-12-28T09:27:23;11.70;99.90
75430;DHT22;64127;51.488;5.462;2023-12-28T09:29:55;11.70;99.90
75430;DHT22;64127;51.488;5.462;2023-12-28T09:32:27;11.80;99.90
75430;DHT22;64127;51.488;5.462;2023-12-28T09:34:59;11.80;99.90
75430;DHT22;64127;51.488;5.462;2023-12-28T09:37:32;11.70;99.90
75430;DHT22;64127;51.488;5.462;2023-12-28T09:40:04;11.70;99.90
75430;DHT22;64127;51.488;5.462;2023-12-28T09:42:47;11.80;99.90
75430;DHT22;64127;51.488;5.462;2023-12-28T09:45:25;11.80;99.90
75430;DHT22;64127;51.488;5.462;2023-12-28T09:47:57;11.80;99.90
75430;DHT22;64127;51.488;5.462;2023-12-28T09:50:31;11.80;99.90
75430;DHT22;64127;51.488;5.462;2023-12-28T09:53:03;11.80;99.90
75430;DHT22;64127;51.488;5.462;2023-12-28T09:55:35;11.80;99.90
75430;DHT22;64127;51.488;5.462;2023-12-28T09:58:07;11.80;99.90
75430;DHT22;64127;51.488;5.462;2023-12-28T10:00:44;11.80;99.90
75430;DHT22;64127;51.488;5.462;2023-12-28T10:03:18;11.80;99.90
75430;DHT22;64127;51.488;5.462;2023-12-28T10:05:51;11.80;99.90
75430;DHT22;64127;51.488;5.462;2023-12-28T10:08:23;11.80;99.90
75430;DHT22;64127;51.488;5.462;2023-12-28T10:10:56;11.80;99.90
75430;DHT22;64127;51.488;5.462;2023-12-28T10:13:33;11.80;99.90
75430;DHT22;64127;51.488;5.462;2023-12-28T10:16:08;11.80;99.90
75430;DHT22;64127;51.488;5.462;2023-12-28T10:18:43;11.80;99.90
75430;DHT22;64127;51.488;5.462;2023-12-28T10:21:15;11.80;99.90
75430;DHT22;64127;51.488;5.462;2023-12-28T10:23:48;11.80;99.90
75430;DHT22;64127;51.488;5.462;2023-12-28T10:26:20;11.80;99.90
75430;DHT22;64127;51.488;5.462;2023-12-28T10:28:59;11.80;99.90
75430;DHT22;64127;51.488;5.462;2023-12-28T10:31:32;11.80;99.90
75430;DHT22;64127;51.488;5.462;2023-12-28T10:34:05;11.90;99.90
75430;DHT22;64127;51.488;5.462;2023-12-28T10:36:38;11.90;99.90
75430;DHT22;64127;51.488;5.462;2023-12-28T10:39:16;11.90;99.90
75430;DHT22;64127;51.488;5.462;2023-12-28T10:41:54;11.90;99.90
75430;DHT22;64127;51.488;5.462;2023-12-28T10:44:32;11.90;99.90
75430;DHT22;64127;51.488;5.462;2023-12-28T10:47:15;11.90;99.90
75430;DHT22;64127;51.488;5.462;2023-12-28T10:49:50;11.90;99.90
75430;DHT22;64127;51.488;5.462;2023-12-28T10:52:27;11.90;99.90
75430;DHT22;64127;51.488;5.462;2023-12-28T10:58:11;12.00;99.90
75430;DHT22;64127;51.488;5.462;2023-12-28T11:00:54;12.10;99.90
75430;DHT22;64127;51.488;5.462;2023-12-28T11:03:33;12.20;99.90
75430;DHT22;64127;51.488;5.462;2023-12-28T11:06:08;12.50;99.90
75430;DHT22;64127;51.488;5.462;2023-12-28T11:08:42;12.70;99.90
75430;DHT22;64127;51.488;5.462;2023-12-28T11:11:16;12.80;99.90
75430;DHT22;64127;51.488;5.462;2023-12-28T11:13:48;12.90;99.90
75430;DHT22;64127;51.488;5.462;2023-12-28T11:16:24;12.90;99.90
75430;DHT22;64127;51.488;5.462;2023-12-28T11:18:57;12.80;99.90
75430;DHT22;64127;51.488;5.462;2023-12-28T11:21:31;12.80;99.90
75430;DHT22;64127;51.488;5.462;2023-12-28T11:24:05;12.70;99.90
75430;DHT22;64127;51.488;5.462;2023-12-28T11:26:38;12.70;99.90
75430;DHT22;64127;51.488;5.462;2023-12-28T11:29:11;12.70;99.90
75430;DHT22;64127;51.488;5.462;2023-12-28T11:31:43;12.60;99.90
75430;DHT22;64127;51.488;5.462;2023-12-28T11:34:15;12.50;99.90
75430;DHT22;64127;51.488;5.462;2023-12-28T11:36:49;12.40;99.90
75430;DHT22;64127;51.488;5.462;2023-12-28T11:42:08;12.30;99.90
75430;DHT22;64127;51.488;5.462;2023-12-28T11:44:42;12.30;99.90
75430;DHT22;64127;51.488;5.462;2023-12-28T11:47:23;12.30;99.90
75430;DHT22;64127;51.488;5.462;2023-12-28T11:50:06;12.30;99.90
75430;DHT22;64127;51.488;5.462;2023-12-28T11:52:39;12.40;99.90
75430;DHT22;64127;51.488;5.462;2023-12-28T11:55:21;12.50;99.90
75430;DHT22;64127;51.488;5.462;2023-12-28T11:57:56;12.50;99.90
75430;DHT22;64127;51.488;5.462;2023-12-28T12:00:28;12.50;99.90
75430;DHT22;64127;51.488;5.462;2023-12-28T12:03:00;12.40;99.90
75430;DHT22;64127;51.488;5.462;2023-12-28T12:05:32;12.40;99.90
75430;DHT22;64127;51.488;5.462;2023-12-28T12:08:06;12.30;99.90
75430;DHT22;64127;51.488;5.462;2023-12-28T12:10:40;12.30;99.90
75430;DHT22;64127;51.488;5.462;2023-12-28T12:13:14;12.20;99.90
75430;DHT22;64127;51.488;5.462;2023-12-28T12:15:50;12.20;99.90
75430;DHT22;64127;51.488;5.462;2023-12-28T12:18:26;12.20;99.90
75430;DHT22;64127;51.488;5.462;2023-12-28T12:20:58;12.20;99.90
75430;DHT22;64127;51.488;5.462;2023-12-28T12:23:30;12.20;99.90
75430;DHT22;64127;51.488;5.462;2023-12-28T12:26:05;12.30;99.90
75430;DHT22;64127;51.488;5.462;2023-12-28T12:28:38;12.20;99.90
75430;DHT22;64127;51.488;5.462;2023-12-28T12:31:13;12.20;99.90
75430;DHT22;64127;51.488;5.462;2023-12-28T12:33:46;12.20;99.90
75430;DHT22;64127;51.488;5.462;2023-12-28T12:36:22;12.30;99.90
75430;DHT22;64127;51.488;5.462;2023-12-28T12:38:55;12.20;99.90
75430;DHT22;64127;51.488;5.462;2023-12-28T12:41:28;12.20;99.90
75430;DHT22;64127;51.488;5.462;2023-12-28T12:44:00;12.20;99.90
75430;DHT22;64127;51.488;5.462;2023-12-28T12:46:33;12.20;99.90
75430;DHT22;64127;51.488;5.462;2023-12-28T12:49:10;12.20;99.90
75430;DHT22;64127;51.488;5.462;2023-12-28T12:51:44;12.20;99.90
75430;DHT22;64127;51.488;5.462;2023-12-28T12:54:20;12.20;99.90
75430;DHT22;64127;51.488;5.462;2023-12-28T12:56:54;12.20;99.90
75430;DHT22;64127;51.488;5.462;2023-12-28T12:59:29;12.20;99.90
75430;DHT22;64127;51.488;5.462;2023-12-28T13:02:02;12.20;99.90
75430;DHT22;64127;51.488;5.462;2023-12-28T13:04:38;12.20;99.90
75430;DHT22;64127;51.488;5.462;2023-12-28T13:07:11;12.20;99.90
75430;DHT22;64127;51.488;5.462;2023-12-28T13:09:43;12.20;99.90
75430;DHT22;64127;51.488;5.462;2023-12-28T13:12:15;12.20;99.90
75430;DHT22;64127;51.488;5.462;2023-12-28T13:14:47;12.20;99.90
75430;DHT22;64127;51.488;5.462;2023-12-28T13:17:19;12.20;99.90
75430;DHT22;64127;51.488;5.462;2023-12-28T13:19:51;12.20;99.90
75430;DHT22;64127;51.488;5.462;2023-12-28T13:22:23;12.20;99.90
75430;DHT22;64127;51.488;5.462;2023-12-28T13:24:55;12.20;99.90
75430;DHT22;64127;51.488;5.462;2023-12-28T13:27:27;12.20;99.90
75430;DHT22;64127;51.488;5.462;2023-12-28T13:30:03;12.20;99.90
75430;DHT22;64127;51.488;5.462;2023-12-28T13:32:36;12.20;99.90
75430;DHT22;64127;51.488;5.462;2023-12-28T13:35:08;12.30;99.90
75430;DHT22;64127;51.488;5.462;2023-12-28T13:37:40;12.30;99.90
75430;DHT22;64127;51.488;5.462;2023-12-28T13:40:12;12.30;99.90
75430;DHT22;64127;51.488;5.462;2023-12-28T13:42:49;12.40;99.90
75430;DHT22;64127;51.488;5.462;2023-12-28T13:45:21;12.40;99.90
75430;DHT22;64127;51.488;5.462;2023-12-28T13:47:53;12.50;99.90
75430;DHT22;64127;51.488;5.462;2023-12-28T13:50:25;12.50;99.90
75430;DHT22;64127;51.488;5.462;2023-12-28T13:52:57;12.60;99.90
75430;DHT22;64127;51.488;5.462;2023-12-28T13:55:29;12.50;99.90
75430;DHT22;64127;51.488;5.462;2023-12-28T13:58:02;12.50;99.90
75430;DHT22;64127;51.488;5.462;2023-12-28T14:00:35;12.50;99.90
75430;DHT22;64127;51.488;5.462;2023-12-28T14:03:07;12.50;99.90
75430;DHT22;64127;51.488;5.462;2023-12-28T14:05:39;12.50;99.90
75430;DHT22;64127;51.488;5.462;2023-12-28T14:08:11;12.50;99.90
75430;DHT22;64127;51.488;5.462;2023-12-28T14:10:43;12.50;99.90
75430;DHT22;64127;51.488;5.462;2023-12-28T14:13:15;12.50;99.90
75430;DHT22;64127;51.488;5.462;2023-12-28T14:15:48;12.40;99.90
75430;DHT22;64127;51.488;5.462;2023-12-28T14:18:20;12.40;99.90
75430;DHT22;64127;51.488;5.462;2023-12-28T14:20:52;12.40;99.90
75430;DHT22;64127;51.488;5.462;2023-12-28T14:23:24;12.30;99.90
75430;DHT22;64127;51.488;5.462;2023-12-28T14:25:57;12.30;99.90
75430;DHT22;64127;51.488;5.462;2023-12-28T14:28:29;12.40;99.90
75430;DHT22;64127;51.488;5.462;2023-12-28T14:31:03;12.30;99.90
75430;DHT22;64127;51.488;5.462;2023-12-28T14:33:36;12.30;99.90
75430;DHT22;64127;51.488;5.462;2023-12-28T14:38:59;12.30;99.90
75430;DHT22;64127;51.488;5.462;2023-12-28T14:41:35;12.30;99.90
75430;DHT22;64127;51.488;5.462;2023-12-28T14:44:12;12.30;99.90
75430;DHT22;64127;51.488;5.462;2023-12-28T14:46:44;12.30;99.90
75430;DHT22;64127;51.488;5.462;2023-12-28T14:49:16;12.40;99.90
75430;DHT22;64127;51.488;5.462;2023-12-28T14:51:48;12.30;99.90
75430;DHT22;64127;51.488;5.462;2023-12-28T14:54:20;12.30;99.90
75430;DHT22;64127;51.488;5.462;2023-12-28T14:56:52;12.30;99.90
75430;DHT22;64127;51.488;5.462;2023-12-28T14:59:26;12.30;99.90
75430;DHT22;64127;51.488;5.462;2023-12-28T15:01:58;12.30;99.90
75430;DHT22;64127;51.488;5.462;2023-12-28T15:04:30;12.30;99.90
75430;DHT22;64127;51.488;5.462;2023-12-28T15:07:02;12.20;99.90
75430;DHT22;64127;51.488;5.462;2023-12-28T15:09:34;12.30;99.90
75430;DHT22;64127;51.488;5.462;2023-12-28T15:12:07;12.20;99.90
75430;DHT22;64127;51.488;5.462;2023-12-28T15:14:40;12.20;99.90
75430;DHT22;64127;51.488;5.462;2023-12-28T15:17:12;12.20;99.90
75430;DHT22;64127;51.488;5.462;2023-12-28T15:19:45;12.20;99.90
75430;DHT22;64127;51.488;5.462;2023-12-28T15:22:17;12.20;99.90
75430;DHT22;64127;51.488;5.462;2023-12-28T15:24:50;12.10;99.90
75430;DHT22;64127;51.488;5.462;2023-12-28T15:27:22;12.10;99.90
75430;DHT22;64127;51.488;5.462;2023-12-28T15:29:54;12.10;99.90
75430;DHT22;64127;51.488;5.462;2023-12-28T15:32:26;12.10;99.90
75430;DHT22;64127;51.488;5.462;2023-12-28T15:34:58;12.10;99.90
75430;DHT22;64127;51.488;5.462;2023-12-28T15:37:34;12.10;99.90
75430;DHT22;64127;51.488;5.462;2023-12-28T15:40:07;12.10;99.90
75430;DHT22;64127;51.488;5.462;2023-12-28T15:42:39;12.10;99.90
75430;DHT22;64127;51.488;5.462;2023-12-28T15:45:11;12.10;99.90
75430;DHT22;64127;51.488;5.462;2023-12-28T15:47:43;12.00;99.90
75430;DHT22;64127;51.488;5.462;2023-12-28T15:50:15;12.10;99.90
75430;DHT22;64127;51.488;5.462;2023-12-28T15:52:48;12.00;99.90
75430;DHT22;64127;51.488;5.462;2023-12-28T15:55:19;12.00;99.90
75430;DHT22;64127;51.488;5.462;2023-12-28T15:57:53;12.00;99.90
75430;DHT22;64127;51.488;5.462;2023-12-28T16:00:25;12.00;99.90
75430;DHT22;64127;51.488;5.462;2023-12-28T16:02:58;12.00;99.90
75430;DHT22;64127;51.488;5.462;2023-12-28T16:05:30;12.10;99.90
75430;DHT22;64127;51.488;5.462;2023-12-28T16:08:03;12.00;99.90
75430;DHT22;64127;51.488;5.462;2023-12-28T16:10:35;12.00;99.90
75430;DHT22;64127;51.488;5.462;2023-12-28T16:13:07;12.00;99.90
75430;DHT22;64127;51.488;5.462;2023-12-28T16:15:39;12.00;99.90
75430;DHT22;64127;51.488;5.462;2023-12-28T16:18:13;12.00;99.90